sensor_id;sensor_type;location;lat;lon;timestamp;temperature;humidity
67817;DHT22;54614;47.576;7.524;2023-04-24T00:00:37;24.90;52.40
67817;DHT22;54614;47.576;7.524;2023-04-24T00:03:06;24.90;52.50
67817;DHT22;54614;47.576;7.524;2023-04-24T00:05:33;24.90;52.40
67817;DHT22;54614;47.576;7.524;2023-04-24T00:07:59;24.90;52.50
67817;DHT22;54614;47.576;7.524;2023-04-24T00:10:25;24.90;52.40
67817;DHT22;54614;47.576;7.524;2023-04-24T00:12:51;24.90;52.30
67817;DHT22;54614;47.576;7.524;2023-04-24T00:15:17;24.90;52.40
67817;DHT22;54614;47.576;7.524;2023-04-24T00:17:42;24.90;52.40
67817;DHT22;54614;47.576;7.524;2023-04-24T00:20:09;24.90;52.50
67817;DHT22;54614;47.576;7.524;2023-04-24T00:22:36;24.90;52.50
67817;DHT22;54614;47.576;7.524;2023-04-24T00:25:01;24.90;52.40
67817;DHT22;54614;47.576;7.524;2023-04-24T00:27:28;24.90;52.50
67817;DHT22;54614;47.576;7.524;2023-04-24T00:29:54;24.90;52.50
67817;DHT22;54614;47.576;7.524;2023-04-24T00:32:20;24.90;52.40
67817;DHT22;54614;47.576;7.524;2023-04-24T00:34:45;24.90;52.40
67817;DHT22;54614;47.576;7.524;2023-04-24T00:37:11;24.90;52.40
67817;DHT22;54614;47.576;7.524;2023-04-24T00:39:37;24.90;52.30
67817;DHT22;54614;47.576;7.524;2023-04-24T00:42:03;24.90;52.40
67817;DHT22;54614;47.576;7.524;2023-04-24T00:44:35;24.90;52.50
67817;DHT22;54614;47.576;7.524;2023-04-24T00:47:01;24.90;52.50
67817;DHT22;54614;47.576;7.524;2023-04-24T00:49:27;24.80;52.40
67817;DHT22;54614;47.576;7.524;2023-04-24T00:51:53;24.90;52.40
67817;DHT22;54614;47.576;7.524;2023-04-24T00:54:19;24.80;52.40
67817;DHT22;54614;47.576;7.524;2023-04-24T00:56:46;24.90;52.40
67817;DHT22;54614;47.576;7.524;2023-04-24T00:59:12;24.80;52.30
67817;DHT22;54614;47.576;7.524;2023-04-24T01:01:39;24.90;52.30
67817;DHT22;54614;47.576;7.524;2023-04-24T01:04:08;24.80;52.30
67817;DHT22;54614;47.576;7.524;2023-04-24T01:06:40;24.80;52.30
67817;DHT22;54614;47.576;7.524;2023-04-24T01:09:10;24.80;52.30
67817;DHT22;54614;47.576;7.524;2023-04-24T01:11:37;24.80;52.30
67817;DHT22;54614;47.576;7.524;2023-04-24T01:14:03;24.80;52.30
67817;DHT22;54614;47.576;7.524;2023-04-24T01:16:29;24.80;52.40
67817;DHT22;54614;47.576;7.524;2023-04-24T01:18:55;24.80;52.30
67817;DHT22;54614;47.576;7.524;2023-04-24T01:21:21;24.80;52.30
67817;DHT22;54614;47.576;7.524;2023-04-24T01:23:53;24.80;52.40
67817;DHT22;54614;47.576;7.524;2023-04-24T01:26:19;24.80;52.30
67817;DHT22;54614;47.576;7.524;2023-04-24T01:28:46;24.80;52.40
67817;DHT22;54614;47.576;7.524;2023-04-24T01:31:13;24.80;52.30
67817;DHT22;54614;47.576;7.524;2023-04-24T01:33:42;24.80;52.40
67817;DHT22;54614;47.576;7.524;2023-04-24T01:36:10;24.80;52.30
67817;DHT22;54614;47.576;7.524;2023-04-24T01:38:36;24.80;52.40
67817;DHT22;54614;47.576;7.524;2023-04-24T01:41:02;24.80;52.40
67817;DHT22;54614;47.576;7.524;2023-04-24T01:43:29;24.80;52.30
67817;DHT22;54614;47.576;7.524;2023-04-24T01:45:55;24.80;52.30
67817;DHT22;54614;47.576;7.524;2023-04-24T01:48:21;24.80;52.30
67817;DHT22;54614;47.576;7.524;2023-04-24T01:50:47;24.80;52.30
67817;DHT22;54614;47.576;7.524;2023-04-24T01:53:13;24.80;52.30
67817;DHT22;54614;47.576;7.524;2023-04-24T01:55:40;24.80;52.20
67817;DHT22;54614;47.576;7.524;2023-04-24T01:58:06;24.80;52.30
67817;DHT22;54614;47.576;7.524;2023-04-24T02:00:32;24.80;52.30
67817;DHT22;54614;47.576;7.524;2023-04-24T02:02:58;24.80;52.30
67817;DHT22;54614;47.576;7.524;2023-04-24T02:05:24;24.80;52.30
67817;DHT22;54614;47.576;7.524;2023-04-24T02:07:50;24.80;52.30
67817;DHT22;54614;47.576;7.524;2023-04-24T02:10:16;24.80;52.40
67817;DHT22;54614;47.576;7.524;2023-04-24T02:12:42;24.70;52.20
67817;DHT22;54614;47.576;7.524;2023-04-24T02:15:08;24.70;52.30
67817;DHT22;54614;47.576;7.524;2023-04-24T02:17:34;24.70;52.30
67817;DHT22;54614;47.576;7.524;2023-04-24T02:20:00;24.70;52.20
67817;DHT22;54614;47.576;7.524;2023-04-24T02:22:26;24.70;52.30
67817;DHT22;54614;47.576;7.524;2023-04-24T02:24:51;24.70;52.30
67817;DHT22;54614;47.576;7.524;2023-04-24T02:27:17;24.70;52.20
67817;DHT22;54614;47.576;7.524;2023-04-24T02:29:43;24.70;52.20
67817;DHT22;54614;47.576;7.524;2023-04-24T02:32:09;24.70;52.30
67817;DHT22;54614;47.576;7.524;2023-04-24T02:34:37;24.70;52.30
67817;DHT22;54614;47.576;7.524;2023-04-24T02:37:03;24.70;52.30
67817;DHT22;54614;47.576;7.524;2023-04-24T02:39:29;24.70;52.30
67817;DHT22;54614;47.576;7.524;2023-04-24T02:41:55;24.70;52.30
67817;DHT22;54614;47.576;7.524;2023-04-24T02:44:21;24.70;52.40
67817;DHT22;54614;47.576;7.524;2023-04-24T02:46:47;24.70;52.30
67817;DHT22;54614;47.576;7.524;2023-04-24T02:49:13;24.70;52.40
67817;DHT22;54614;47.576;7.524;2023-04-24T02:51:39;24.70;52.30
67817;DHT22;54614;47.576;7.524;2023-04-24T02:54:07;24.70;52.30
67817;DHT22;54614;47.576;7.524;2023-04-24T02:56:35;24.70;52.30
67817;DHT22;54614;47.576;7.524;2023-04-24T02:59:01;24.70;52.30
67817;DHT22;54614;47.576;7.524;2023-04-24T03:01:27;24.70;52.30
67817;DHT22;54614;47.576;7.524;2023-04-24T03:03:53;24.70;52.30
67817;DHT22;54614;47.576;7.524;2023-04-24T03:06:18;24.70;52.40
67817;DHT22;54614;47.576;7.524;2023-04-24T03:08:46;24.70;52.30
67817;DHT22;54614;47.576;7.524;2023-04-24T03:11:12;24.70;52.40
67817;DHT22;54614;47.576;7.524;2023-04-24T03:13:37;24.70;52.30
67817;DHT22;54614;47.576;7.524;2023-04-24T03:16:03;24.70;52.40
67817;DHT22;54614;47.576;7.524;2023-04-24T03:18:30;24.70;52.30
67817;DHT22;54614;47.576;7.524;2023-04-24T03:20:55;24.70;52.40
67817;DHT22;54614;47.576;7.524;2023-04-24T03:23:21;24.70;52.30
67817;DHT22;54614;47.576;7.524;2023-04-24T03:25:47;24.70;52.40
67817;DHT22;54614;47.576;7.524;2023-04-24T03:28:14;24.70;52.40
67817;DHT22;54614;47.576;7.524;2023-04-24T03:30:40;24.70;52.30
67817;DHT22;54614;47.576;7.524;2023-04-24T03:33:05;24.70;52.40
67817;DHT22;54614;47.576;7.524;2023-04-24T03:35:31;24.70;52.40
67817;DHT22;54614;47.576;7.524;2023-04-24T03:37:57;24.70;52.30
67817;DHT22;54614;47.576;7.524;2023-04-24T03:40:23;24.60;52.30
67817;DHT22;54614;47.576;7.524;2023-04-24T03:42:49;24.70;52.40
67817;DHT22;54614;47.576;7.524;2023-04-24T03:45:15;24.60;52.30
67817;DHT22;54614;47.576;7.524;2023-04-24T03:47:40;24.70;52.40
67817;DHT22;54614;47.576;7.524;2023-04-24T03:50:07;24.70;52.40
67817;DHT22;54614;47.576;7.524;2023-04-24T03:52:33;24.60;52.30
67817;DHT22;54614;47.576;7.524;2023-04-24T03:54:59;24.60;52.30
67817;DHT22;54614;47.576;7.524;2023-04-24T03:57:24;24.60;52.30
67817;DHT22;54614;47.576;7.524;2023-04-24T03:59:50;24.60;52.40
67817;DHT22;54614;47.576;7.524;2023-04-24T04:02:16;24.60;52.30
67817;DHT22;54614;47.576;7.524;2023-04-24T04:04:42;24.60;52.50
67817;DHT22;54614;47.576;7.524;2023-04-24T04:07:08;24.60;52.50
67817;DHT22;54614;47.576;7.524;2023-04-24T04:09:34;24.60;52.50
67817;DHT22;54614;47.576;7.524;2023-04-24T04:12:00;24.60;52.50
67817;DHT22;54614;47.576;7.524;2023-04-24T04:14:26;24.60;52.40
67817;DHT22;54614;47.576;7.524;2023-04-24T04:16:52;24.60;52.40
67817;DHT22;54614;47.576;7.524;2023-04-24T04:19:18;24.60;52.70
67817;DHT22;54614;47.576;7.524;2023-04-24T04:21:44;24.60;52.80
67817;DHT22;54614;47.576;7.524;2023-04-24T04:24:11;24.60;52.50
67817;DHT22;54614;47.576;7.524;2023-04-24T04:26:37;24.60;52.60
67817;DHT22;54614;47.576;7.524;2023-04-24T04:29:04;24.60;52.50
67817;DHT22;54614;47.576;7.524;2023-04-24T04:31:29;24.60;52.50
67817;DHT22;54614;47.576;7.524;2023-04-24T04:33:56;24.60;52.50
67817;DHT22;54614;47.576;7.524;2023-04-24T04:36:22;24.60;52.60
67817;DHT22;54614;47.576;7.524;2023-04-24T04:38:49;24.60;52.50
67817;DHT22;54614;47.576;7.524;2023-04-24T04:41:15;24.60;52.50
67817;DHT22;54614;47.576;7.524;2023-04-24T04:43:42;24.60;52.50
67817;DHT22;54614;47.576;7.524;2023-04-24T04:46:08;24.60;52.40
67817;DHT22;54614;47.576;7.524;2023-04-24T04:48:36;24.60;52.50
67817;DHT22;54614;47.576;7.524;2023-04-24T04:51:02;24.60;52.30
67817;DHT22;54614;47.576;7.524;2023-04-24T04:53:28;24.60;52.50
67817;DHT22;54614;47.576;7.524;2023-04-24T04:55:53;24.60;52.50
67817;DHT22;54614;47.576;7.524;2023-04-24T04:58:19;24.60;52.50
67817;DHT22;54614;47.576;7.524;2023-04-24T05:00:45;24.60;52.40
67817;DHT22;54614;47.576;7.524;2023-04-24T05:03:11;24.60;52.40
67817;DHT22;54614;47.576;7.524;2023-04-24T05:05:37;24.60;52.50
67817;DHT22;54614;47.576;7.524;2023-04-24T05:08:08;24.60;52.50
67817;DHT22;54614;47.576;7.524;2023-04-24T05:10:34;24.60;52.40
67817;DHT22;54614;47.576;7.524;2023-04-24T05:13:02;24.60;52.40
67817;DHT22;54614;47.576;7.524;2023-04-24T05:15:29;24.60;52.40
67817;DHT22;54614;47.576;7.524;2023-04-24T05:17:55;24.60;52.50
67817;DHT22;54614;47.576;7.524;2023-04-24T05:20:21;24.60;52.30
67817;DHT22;54614;47.576;7.524;2023-04-24T05:22:48;24.60;52.30
67817;DHT22;54614;47.576;7.524;2023-04-24T05:25:14;24.60;52.30
67817;DHT22;54614;47.576;7.524;2023-04-24T05:27:40;24.60;52.40
67817;DHT22;54614;47.576;7.524;2023-04-24T05:30:07;24.60;52.40
67817;DHT22;54614;47.576;7.524;2023-04-24T05:32:33;24.60;52.60
67817;DHT22;54614;47.576;7.524;2023-04-24T05:34:59;24.60;52.50
67817;DHT22;54614;47.576;7.524;2023-04-24T05:37:25;24.50;54.40
67817;DHT22;54614;47.576;7.524;2023-04-24T05:39:51;24.50;54.20
67817;DHT22;54614;47.576;7.524;2023-04-24T05:42:17;24.50;53.10
67817;DHT22;54614;47.576;7.524;2023-04-24T05:44:42;24.50;52.70
67817;DHT22;54614;47.576;7.524;2023-04-24T05:47:09;24.60;52.70
67817;DHT22;54614;47.576;7.524;2023-04-24T05:49:34;24.60;52.60
67817;DHT22;54614;47.576;7.524;2023-04-24T05:52:00;24.60;52.50
67817;DHT22;54614;47.576;7.524;2023-04-24T05:54:26;24.70;52.60
67817;DHT22;54614;47.576;7.524;2023-04-24T05:56:52;24.60;52.50
67817;DHT22;54614;47.576;7.524;2023-04-24T05:59:19;24.60;52.60
67817;DHT22;54614;47.576;7.524;2023-04-24T06:01:45;24.60;52.50
67817;DHT22;54614;47.576;7.524;2023-04-24T06:04:12;24.60;52.50
67817;DHT22;54614;47.576;7.524;2023-04-24T06:06:39;24.60;52.60
67817;DHT22;54614;47.576;7.524;2023-04-24T06:09:05;24.60;52.50
67817;DHT22;54614;47.576;7.524;2023-04-24T06:11:32;24.60;52.40
67817;DHT22;54614;47.576;7.524;2023-04-24T06:13:57;24.60;52.40
67817;DHT22;54614;47.576;7.524;2023-04-24T06:16:23;24.70;52.40
67817;DHT22;54614;47.576;7.524;2023-04-24T06:18:49;24.60;52.30
67817;DHT22;54614;47.576;7.524;2023-04-24T06:21:16;24.60;52.30
67817;DHT22;54614;47.576;7.524;2023-04-24T06:23:42;24.60;52.30
67817;DHT22;54614;47.576;7.524;2023-04-24T06:26:08;24.60;52.30
67817;DHT22;54614;47.576;7.524;2023-04-24T06:28:34;24.60;52.30
67817;DHT22;54614;47.576;7.524;2023-04-24T06:31:00;24.60;52.30
67817;DHT22;54614;47.576;7.524;2023-04-24T06:33:26;24.60;52.30
67817;DHT22;54614;47.576;7.524;2023-04-24T06:35:52;24.60;52.30
67817;DHT22;54614;47.576;7.524;2023-04-24T06:38:18;24.60;55.20
67817;DHT22;54614;47.576;7.524;2023-04-24T06:40:44;24.50;55.30
67817;DHT22;54614;47.576;7.524;2023-04-24T06:43:09;24.50;55.10
67817;DHT22;54614;47.576;7.524;2023-04-24T06:45:36;24.50;54.50
67817;DHT22;54614;47.576;7.524;2023-04-24T06:48:02;24.50;54.20
67817;DHT22;54614;47.576;7.524;2023-04-24T06:50:28;24.50;54.10
67817;DHT22;54614;47.576;7.524;2023-04-24T06:52:54;24.50;53.90
67817;DHT22;54614;47.576;7.524;2023-04-24T06:55:19;24.50;53.40
67817;DHT22;54614;47.576;7.524;2023-04-24T06:57:45;24.50;52.90
67817;DHT22;54614;47.576;7.524;2023-04-24T07:00:11;24.60;52.70
67817;DHT22;54614;47.576;7.524;2023-04-24T07:02:38;24.60;52.50
67817;DHT22;54614;47.576;7.524;2023-04-24T07:05:05;24.70;52.50
67817;DHT22;54614;47.576;7.524;2023-04-24T07:07:30;24.70;52.40
67817;DHT22;54614;47.576;7.524;2023-04-24T07:09:56;24.60;54.60
67817;DHT22;54614;47.576;7.524;2023-04-24T07:12:23;24.60;55.00
67817;DHT22;54614;47.576;7.524;2023-04-24T07:14:50;24.60;54.60
67817;DHT22;54614;47.576;7.524;2023-04-24T07:17:16;24.60;54.00
67817;DHT22;54614;47.576;7.524;2023-04-24T07:19:42;24.60;53.70
67817;DHT22;54614;47.576;7.524;2023-04-24T07:22:08;24.70;53.20
67817;DHT22;54614;47.576;7.524;2023-04-24T07:24:33;24.70;52.60
67817;DHT22;54614;47.576;7.524;2023-04-24T07:27:00;24.70;52.40
67817;DHT22;54614;47.576;7.524;2023-04-24T07:29:28;24.80;52.40
67817;DHT22;54614;47.576;7.524;2023-04-24T07:31:54;24.80;52.40
67817;DHT22;54614;47.576;7.524;2023-04-24T07:34:21;24.80;52.20
67817;DHT22;54614;47.576;7.524;2023-04-24T07:36:47;24.80;52.10
67817;DHT22;54614;47.576;7.524;2023-04-24T07:39:13;24.80;52.10
67817;DHT22;54614;47.576;7.524;2023-04-24T07:41:39;24.90;52.00
67817;DHT22;54614;47.576;7.524;2023-04-24T07:44:05;24.90;52.00
67817;DHT22;54614;47.576;7.524;2023-04-24T07:46:31;24.90;51.90
67817;DHT22;54614;47.576;7.524;2023-04-24T07:48:57;24.90;51.90
67817;DHT22;54614;47.576;7.524;2023-04-24T07:51:24;24.90;51.90
67817;DHT22;54614;47.576;7.524;2023-04-24T07:53:53;24.90;52.00
67817;DHT22;54614;47.576;7.524;2023-04-24T07:56:20;24.90;52.00
67817;DHT22;54614;47.576;7.524;2023-04-24T07:58:46;24.90;52.10
67817;DHT22;54614;47.576;7.524;2023-04-24T08:01:12;24.80;52.00
67817;DHT22;54614;47.576;7.524;2023-04-24T08:03:38;24.80;52.00
67817;DHT22;54614;47.576;7.524;2023-04-24T08:06:04;24.80;51.60
67817;DHT22;54614;47.576;7.524;2023-04-24T08:08:30;24.80;51.30
67817;DHT22;54614;47.576;7.524;2023-04-24T08:10:56;24.80;51.90
67817;DHT22;54614;47.576;7.524;2023-04-24T08:13:22;24.70;52.30
67817;DHT22;54614;47.576;7.524;2023-04-24T08:15:48;24.70;52.60
67817;DHT22;54614;47.576;7.524;2023-04-24T08:18:14;24.50;53.40
67817;DHT22;54614;47.576;7.524;2023-04-24T08:20:41;24.40;53.40
67817;DHT22;54614;47.576;7.524;2023-04-24T08:25:34;24.50;56.30
67817;DHT22;54614;47.576;7.524;2023-04-24T08:28:02;24.70;56.40
67817;DHT22;54614;47.576;7.524;2023-04-24T08:30:29;24.80;54.80
67817;DHT22;54614;47.576;7.524;2023-04-24T08:32:55;24.80;53.80
67817;DHT22;54614;47.576;7.524;2023-04-24T08:35:22;24.70;53.60
67817;DHT22;54614;47.576;7.524;2023-04-24T08:37:48;24.80;53.20
67817;DHT22;54614;47.576;7.524;2023-04-24T08:40:15;24.80;53.20
67817;DHT22;54614;47.576;7.524;2023-04-24T08:42:45;24.80;52.80
67817;DHT22;54614;47.576;7.524;2023-04-24T08:45:12;24.90;53.00
67817;DHT22;54614;47.576;7.524;2023-04-24T08:47:39;24.90;53.00
67817;DHT22;54614;47.576;7.524;2023-04-24T08:50:07;24.90;52.70
67817;DHT22;54614;47.576;7.524;2023-04-24T08:52:34;24.90;52.50
67817;DHT22;54614;47.576;7.524;2023-04-24T08:55:01;25.00;52.40
67817;DHT22;54614;47.576;7.524;2023-04-24T08:57:28;25.00;52.20
67817;DHT22;54614;47.576;7.524;2023-04-24T08:59:56;25.00;52.00
67817;DHT22;54614;47.576;7.524;2023-04-24T09:02:23;25.00;51.90
67817;DHT22;54614;47.576;7.524;2023-04-24T09:04:51;25.00;51.80
67817;DHT22;54614;47.576;7.524;2023-04-24T09:07:19;25.00;52.00
67817;DHT22;54614;47.576;7.524;2023-04-24T09:09:48;25.10;51.90
67817;DHT22;54614;47.576;7.524;2023-04-24T09:12:16;25.10;51.60
67817;DHT22;54614;47.576;7.524;2023-04-24T09:14:42;25.10;51.70
67817;DHT22;54614;47.576;7.524;2023-04-24T09:17:11;25.10;51.60
67817;DHT22;54614;47.576;7.524;2023-04-24T09:19:37;25.10;51.50
67817;DHT22;54614;47.576;7.524;2023-04-24T09:22:07;25.00;51.50
67817;DHT22;54614;47.576;7.524;2023-04-24T09:24:34;25.00;51.40
67817;DHT22;54614;47.576;7.524;2023-04-24T09:27:01;25.00;51.40
67817;DHT22;54614;47.576;7.524;2023-04-24T09:29:27;25.00;51.40
67817;DHT22;54614;47.576;7.524;2023-04-24T09:31:53;25.00;51.30
67817;DHT22;54614;47.576;7.524;2023-04-24T09:34:24;25.00;51.40
67817;DHT22;54614;47.576;7.524;2023-04-24T09:36:51;25.00;51.20
67817;DHT22;54614;47.576;7.524;2023-04-24T09:39:18;24.90;51.20
67817;DHT22;54614;47.576;7.524;2023-04-24T09:41:52;25.00;51.30
67817;DHT22;54614;47.576;7.524;2023-04-24T09:44:24;25.00;51.20
67817;DHT22;54614;47.576;7.524;2023-04-24T09:46:59;25.00;51.30
67817;DHT22;54614;47.576;7.524;2023-04-24T09:49:30;25.00;51.30
67817;DHT22;54614;47.576;7.524;2023-04-24T09:52:09;25.00;51.20
67817;DHT22;54614;47.576;7.524;2023-04-24T09:54:37;25.00;51.30
67817;DHT22;54614;47.576;7.524;2023-04-24T09:57:04;25.10;51.20
67817;DHT22;54614;47.576;7.524;2023-04-24T09:59:30;25.10;50.90
67817;DHT22;54614;47.576;7.524;2023-04-24T10:01:56;25.10;51.00
67817;DHT22;54614;47.576;7.524;2023-04-24T10:04:28;25.10;51.00
67817;DHT22;54614;47.576;7.524;2023-04-24T10:06:57;25.10;51.00
67817;DHT22;54614;47.576;7.524;2023-04-24T10:09:25;25.10;51.00
67817;DHT22;54614;47.576;7.524;2023-04-24T10:11:53;25.10;51.10
67817;DHT22;54614;47.576;7.524;2023-04-24T10:14:21;25.10;51.10
67817;DHT22;54614;47.576;7.524;2023-04-24T10:16:50;25.10;51.20
67817;DHT22;54614;47.576;7.524;2023-04-24T10:19:18;25.10;51.30
67817;DHT22;54614;47.576;7.524;2023-04-24T10:21:45;25.10;51.40
67817;DHT22;54614;47.576;7.524;2023-04-24T10:24:16;25.10;51.50
67817;DHT22;54614;47.576;7.524;2023-04-24T10:26:45;25.10;51.50
67817;DHT22;54614;47.576;7.524;2023-04-24T10:29:14;25.20;51.60
67817;DHT22;54614;47.576;7.524;2023-04-24T10:31:42;25.20;51.60
67817;DHT22;54614;47.576;7.524;2023-04-24T10:34:11;25.20;51.50
67817;DHT22;54614;47.576;7.524;2023-04-24T10:36:45;25.20;51.70
67817;DHT22;54614;47.576;7.524;2023-04-24T10:39:14;25.20;51.50
67817;DHT22;54614;47.576;7.524;2023-04-24T10:41:42;25.20;51.50
67817;DHT22;54614;47.576;7.524;2023-04-24T10:44:11;25.30;51.60
67817;DHT22;54614;47.576;7.524;2023-04-24T10:46:43;25.30;51.60
67817;DHT22;54614;47.576;7.524;2023-04-24T10:49:13;25.30;51.50
67817;DHT22;54614;47.576;7.524;2023-04-24T10:51:48;25.40;51.50
67817;DHT22;54614;47.576;7.524;2023-04-24T10:54:27;25.40;51.50
67817;DHT22;54614;47.576;7.524;2023-04-24T10:57:28;25.40;51.40
67817;DHT22;54614;47.576;7.524;2023-04-24T11:00:19;25.30;51.60
67817;DHT22;54614;47.576;7.524;2023-04-24T11:02:47;25.40;51.70
67817;DHT22;54614;47.576;7.524;2023-04-24T11:05:16;25.40;51.80
67817;DHT22;54614;47.576;7.524;2023-04-24T11:08:13;25.40;51.80
67817;DHT22;54614;47.576;7.524;2023-04-24T11:10:45;25.40;51.80
67817;DHT22;54614;47.576;7.524;2023-04-24T11:13:21;25.50;51.50
67817;DHT22;54614;47.576;7.524;2023-04-24T11:16:42;25.50;51.30
67817;DHT22;54614;47.576;7.524;2023-04-24T11:22:00;25.50;51.30
67817;DHT22;54614;47.576;7.524;2023-04-24T11:24:49;25.50;51.00
67817;DHT22;54614;47.576;7.524;2023-04-24T11:27:20;25.50;51.00
67817;DHT22;54614;47.576;7.524;2023-04-24T11:32:34;25.60;50.90
67817;DHT22;54614;47.576;7.524;2023-04-24T11:37:46;25.50;50.60
67817;DHT22;54614;47.576;7.524;2023-04-24T11:40:16;25.50;50.60
67817;DHT22;54614;47.576;7.524;2023-04-24T11:42:45;25.50;50.60
67817;DHT22;54614;47.576;7.524;2023-04-24T11:45:15;25.50;50.80
67817;DHT22;54614;47.576;7.524;2023-04-24T11:47:42;25.50;50.70
67817;DHT22;54614;47.576;7.524;2023-04-24T11:50:11;25.50;50.70
67817;DHT22;54614;47.576;7.524;2023-04-24T11:52:40;25.50;50.70
67817;DHT22;54614;47.576;7.524;2023-04-24T11:55:28;25.50;50.70
67817;DHT22;54614;47.576;7.524;2023-04-24T11:57:58;25.50;50.70
67817;DHT22;54614;47.576;7.524;2023-04-24T12:00:27;25.50;50.70
67817;DHT22;54614;47.576;7.524;2023-04-24T12:03:08;25.50;50.60
67817;DHT22;54614;47.576;7.524;2023-04-24T12:05:36;25.50;50.50
67817;DHT22;54614;47.576;7.524;2023-04-24T12:08:02;25.50;50.60
67817;DHT22;54614;47.576;7.524;2023-04-24T12:10:29;25.40;52.00
67817;DHT22;54614;47.576;7.524;2023-04-24T12:12:57;25.10;52.70
67817;DHT22;54614;47.576;7.524;2023-04-24T12:15:24;25.00;52.90
67817;DHT22;54614;47.576;7.524;2023-04-24T12:17:51;25.00;53.00
67817;DHT22;54614;47.576;7.524;2023-04-24T12:20:30;24.90;53.00
67817;DHT22;54614;47.576;7.524;2023-04-24T12:22:59;25.00;52.60
67817;DHT22;54614;47.576;7.524;2023-04-24T12:25:36;25.00;52.50
67817;DHT22;54614;47.576;7.524;2023-04-24T16:23:19;25.80;48.90
67817;DHT22;54614;47.576;7.524;2023-04-24T16:25:45;25.80;49.40
67817;DHT22;54614;47.576;7.524;2023-04-24T16:28:11;25.80;49.70
67817;DHT22;54614;47.576;7.524;2023-04-24T16:30:38;25.80;50.20
67817;DHT22;54614;47.576;7.524;2023-04-24T16:33:04;25.80;51.20
67817;DHT22;54614;47.576;7.524;2023-04-24T16:35:34;25.70;51.60
67817;DHT22;54614;47.576;7.524;2023-04-24T16:38:00;25.60;51.70
67817;DHT22;54614;47.576;7.524;2023-04-24T16:40:27;25.60;51.60
67817;DHT22;54614;47.576;7.524;2023-04-24T16:42:53;25.50;52.20
67817;DHT22;54614;47.576;7.524;2023-04-24T16:45:19;25.40;52.40
67817;DHT22;54614;47.576;7.524;2023-04-24T16:47:45;25.40;52.50
67817;DHT22;54614;47.576;7.524;2023-04-24T16:50:11;25.40;52.30
67817;DHT22;54614;47.576;7.524;2023-04-24T16:52:37;25.40;52.10
67817;DHT22;54614;47.576;7.524;2023-04-24T16:55:04;25.40;52.10
67817;DHT22;54614;47.576;7.524;2023-04-24T16:57:30;25.40;51.90
67817;DHT22;54614;47.576;7.524;2023-04-24T16:59:56;25.50;51.90
67817;DHT22;54614;47.576;7.524;2023-04-24T17:02:22;25.50;51.50
67817;DHT22;54614;47.576;7.524;2023-04-24T17:04:47;25.60;51.60
67817;DHT22;54614;47.576;7.524;2023-04-24T17:07:13;25.50;51.50
67817;DHT22;54614;47.576;7.524;2023-04-24T17:09:39;25.50;51.50
67817;DHT22;54614;47.576;7.524;2023-04-24T17:12:05;25.60;51.40
67817;DHT22;54614;47.576;7.524;2023-04-24T17:14:32;25.60;51.40
67817;DHT22;54614;47.576;7.524;2023-04-24T17:16:58;25.60;51.40
67817;DHT22;54614;47.576;7.524;2023-04-24T17:19:24;25.50;50.80
67817;DHT22;54614;47.576;7.524;2023-04-24T17:21:51;25.60;50.60
67817;DHT22;54614;47.576;7.524;2023-04-24T17:24:16;25.60;50.40
67817;DHT22;54614;47.576;7.524;2023-04-24T17:26:42;25.70;50.40
67817;DHT22;54614;47.576;7.524;2023-04-24T17:29:08;25.70;50.20
67817;DHT22;54614;47.576;7.524;2023-04-24T17:31:34;25.70;50.50
67817;DHT22;54614;47.576;7.524;2023-04-24T17:34:00;25.60;50.10
67817;DHT22;54614;47.576;7.524;2023-04-24T17:36:26;25.60;49.80
67817;DHT22;54614;47.576;7.524;2023-04-24T17:38:51;25.70;50.10
67817;DHT22;54614;47.576;7.524;2023-04-24T17:41:17;25.60;49.60
67817;DHT22;54614;47.576;7.524;2023-04-24T17:43:43;25.70;49.40
67817;DHT22;54614;47.576;7.524;2023-04-24T17:46:10;25.70;49.50
67817;DHT22;54614;47.576;7.524;2023-04-24T17:48:35;25.60;49.60
67817;DHT22;54614;47.576;7.524;2023-04-24T17:51:01;25.60;49.60
67817;DHT22;54614;47.576;7.524;2023-04-24T17:53:27;25.60;49.30
67817;DHT22;54614;47.576;7.524;2023-04-24T17:55:53;25.60;49.10
67817;DHT22;54614;47.576;7.524;2023-04-24T17:58:22;25.60;49.10
67817;DHT22;54614;47.576;7.524;2023-04-24T18:00:48;25.60;49.20
67817;DHT22;54614;47.576;7.524;2023-04-24T18:03:13;25.60;49.20
67817;DHT22;54614;47.576;7.524;2023-04-24T18:05:39;25.60;49.00
67817;DHT22;54614;47.576;7.524;2023-04-24T18:08:06;25.60;49.00
67817;DHT22;54614;47.576;7.524;2023-04-24T18:10:33;25.60;49.00
67817;DHT22;54614;47.576;7.524;2023-04-24T18:13:02;25.50;49.40
67817;DHT22;54614;47.576;7.524;2023-04-24T18:15:28;25.50;49.20
67817;DHT22;54614;47.576;7.524;2023-04-24T18:17:54;25.50;49.40
67817;DHT22;54614;47.576;7.524;2023-04-24T18:20:20;25.50;49.20
67817;DHT22;54614;47.576;7.524;2023-04-24T18:22:46;25.50;49.20
67817;DHT22;54614;47.576;7.524;2023-04-24T18:25:13;25.50;49.20
67817;DHT22;54614;47.576;7.524;2023-04-24T18:27:40;25.50;48.90
67817;DHT22;54614;47.576;7.524;2023-04-24T18:30:07;25.50;49.00
67817;DHT22;54614;47.576;7.524;2023-04-24T18:32:35;25.50;49.00
67817;DHT22;54614;47.576;7.524;2023-04-24T18:35:01;25.50;48.90
67817;DHT22;54614;47.576;7.524;2023-04-24T18:37:28;25.50;49.10
67817;DHT22;54614;47.576;7.524;2023-04-24T18:39:54;25.50;48.90
67817;DHT22;54614;47.576;7.524;2023-04-24T18:42:21;25.50;48.90
67817;DHT22;54614;47.576;7.524;2023-04-24T18:44:47;25.50;49.00
67817;DHT22;54614;47.576;7.524;2023-04-24T18:47:14;25.50;49.20
67817;DHT22;54614;47.576;7.524;2023-04-24T18:49:39;25.50;49.50
67817;DHT22;54614;47.576;7.524;2023-04-24T18:54:31;25.50;49.10
67817;DHT22;54614;47.576;7.524;2023-04-24T18:56:58;25.50;50.00
67817;DHT22;54614;47.576;7.524;2023-04-24T18:59:23;25.50;50.20
67817;DHT22;54614;47.576;7.524;2023-04-24T19:01:49;25.40;50.50
67817;DHT22;54614;47.576;7.524;2023-04-24T19:04:16;25.40;50.40
67817;DHT22;54614;47.576;7.524;2023-04-24T19:06:42;25.40;50.70
67817;DHT22;54614;47.576;7.524;2023-04-24T19:09:08;25.20;50.90
67817;DHT22;54614;47.576;7.524;2023-04-24T19:11:34;25.30;50.80
67817;DHT22;54614;47.576;7.524;2023-04-24T19:16:28;25.40;50.20
67817;DHT22;54614;47.576;7.524;2023-04-24T19:18:54;25.40;50.70
67817;DHT22;54614;47.576;7.524;2023-04-24T19:21:20;25.20;51.60
67817;DHT22;54614;47.576;7.524;2023-04-24T19:23:47;25.10;52.20
67817;DHT22;54614;47.576;7.524;2023-04-24T19:26:15;25.10;52.30
67817;DHT22;54614;47.576;7.524;2023-04-24T19:28:41;25.00;52.50
67817;DHT22;54614;47.576;7.524;2023-04-24T19:31:07;25.00;52.50
67817;DHT22;54614;47.576;7.524;2023-04-24T19:33:33;25.00;52.70
67817;DHT22;54614;47.576;7.524;2023-04-24T19:35:59;25.00;52.80
67817;DHT22;54614;47.576;7.524;2023-04-24T19:38:25;25.00;53.10
67817;DHT22;54614;47.576;7.524;2023-04-24T19:40:51;25.00;53.30